Time;durP1;ratioP1;P1;durP2;ratioP2;P2;SDS_P1;SDS_P2;PMS_P1;PMS_P2;Temp;Humidity;BMP_temperature;BMP_pressure;BME280_temperature;BME280_humidity;BME280_pressure;Samples;Min_cycle;Max_cycle;Signal;HPM_P1;HPM_P2
2021/10/23 00:02:13;;;;;;;13.95;4.45;;;;;;;9.46;89.73;102365.47;4993926;28;20104;-45
2021/10/23 00:04:41;;;;;;;15.98;5.95;;;;;;;9.47;90.12;102372.56;4993280;28;20039;-48
2021/10/23 00:07:09;;;;;;;12.07;4.13;;;;;;;9.47;90.00;102372.56;4993420;28;20041;-46
2021/10/23 00:09:37;;;;;;;14.88;5.03;;;;;;;9.45;89.97;102370.06;4993494;28;20065;-46
2021/10/23 00:12:07;;;;;;;11.27;4.60;;;;;;;9.45;90.15;102374.69;4993598;28;20493;-46
2021/10/23 00:14:35;;;;;;;11.18;5.30;;;;;;;9.47;90.21;102378.00;4993377;28;20046;-43
2021/10/23 00:17:03;;;;;;;13.90;4.90;;;;;;;9.49;90.41;102381.34;4993371;28;20481;-46
2021/10/23 00:19:30;;;;;;;11.35;4.30;;;;;;;9.52;90.41;102383.63;4993141;28;20111;-45
2021/10/23 00:21:58;;;;;;;12.32;4.45;;;;;;;9.50;90.08;102393.88;4993309;28;20047;-46
2021/10/23 00:24:25;;;;;;;10.32;3.85;;;;;;;9.48;90.47;102391.41;4993191;28;20048;-44
2021/10/23 00:26:53;;;;;;;13.05;4.13;;;;;;;9.52;90.51;102391.78;4993500;28;20038;-42
2021/10/23 00:29:21;;;;;;;11.70;5.03;;;;;;;9.52;90.39;102397.22;4992781;28;20038;-44
2021/10/23 00:31:48;;;;;;;9.35;3.85;;;;;;;9.49;90.37;102393.06;4993410;28;20042;-45
2021/10/23 00:34:16;;;;;;;14.82;5.38;;;;;;;9.48;90.40;102388.69;4992271;28;20043;-44
2021/10/23 00:36:43;;;;;;;9.82;4.05;;;;;;;9.46;90.29;102393.50;4992827;28;20548;-46
2021/10/23 00:39:11;;;;;;;8.55;4.00;;;;;;;9.46;90.53;102389.97;4992788;28;20563;-43
2021/10/23 00:41:39;;;;;;;10.60;4.25;;;;;;;9.45;90.61;102394.56;4992811;28;20035;-44
2021/10/23 00:44:25;;;;;;;11.77;4.00;;;;;;;9.47;91.12;102388.91;4992741;28;20038;-45
2021/10/23 00:46:53;;;;;;;11.48;4.22;;;;;;;9.49;91.00;102394.97;4994208;28;20559;-46
2021/10/23 00:49:21;;;;;;;12.10;4.18;;;;;;;9.49;90.42;102398.50;4992510;28;20050;-45
2021/10/23 00:51:48;;;;;;;13.45;4.20;;;;;;;9.50;90.95;102399.34;4992830;28;20048;-46
2021/10/23 00:54:16;;;;;;;13.48;3.83;;;;;;;9.51;90.35;102401.00;4992508;28;20543;-46
2021/10/23 00:56:44;;;;;;;14.05;4.40;;;;;;;9.49;90.35;102408.56;4992823;28;20053;-45
2021/10/23 00:59:11;;;;;;;15.50;5.03;;;;;;;9.47;90.82;102394.34;4992851;28;20050;-47
2021/10/23 01:01:39;;;;;;;11.20;4.00;;;;;;;9.51;91.24;102401.00;4992302;28;20047;-46
2021/10/23 01:04:07;;;;;;;13.98;4.63;;;;;;;9.54;91.26;102400.56;4991790;28;20489;-47
2021/10/23 01:06:34;;;;;;;12.98;4.15;;;;;;;9.53;90.74;102396.19;4992586;28;20046;-44
2021/10/23 01:09:04;;;;;;;14.40;4.90;;;;;;;9.54;90.98;102397.84;4992527;28;20030;-45
2021/10/23 01:11:32;;;;;;;9.98;4.38;;;;;;;9.56;91.02;102390.28;4985903;28;20046;-44
2021/10/23 01:14:00;;;;;;;9.70;3.83;;;;;;;9.56;90.89;102391.13;4992240;28;20050;-44
2021/10/23 01:16:27;;;;;;;9.65;3.80;;;;;;;9.54;90.56;102395.13;4992012;28;20050;-45
2021/10/23 01:18:55;;;;;;;12.35;4.40;;;;;;;9.54;91.04;102385.06;4992002;28;20440;-42
2021/10/23 01:21:24;;;;;;;10.48;3.85;;;;;;;9.54;91.27;102395.13;4992510;28;20042;-45
2021/10/23 01:23:51;;;;;;;10.63;3.72;;;;;;;9.50;91.00;102389.31;4992440;28;20042;-45
2021/10/23 01:26:23;;;;;;;11.30;3.97;;;;;;;9.50;91.49;102388.44;4992198;28;20046;-44
2021/10/23 01:28:51;;;;;;;11.10;4.63;;;;;;;9.49;91.53;102392.22;4991954;28;20039;-43
2021/10/23 01:31:19;;;;;;;11.13;4.00;;;;;;;9.50;91.57;102396.59;4992086;28;20065;-44
2021/10/23 01:33:47;;;;;;;10.98;4.18;;;;;;;9.50;91.52;102385.72;4991444;28;20453;-46
2021/10/23 01:36:16;;;;;;;11.23;4.60;;;;;;;9.51;91.06;102393.69;4992120;28;20073;-45
2021/10/23 01:38:46;;;;;;;9.80;4.32;;;;;;;9.50;90.92;102400.19;4992215;28;20042;-46
2021/10/23 01:41:14;;;;;;;11.95;4.93;;;;;;;9.50;90.93;102399.34;4992042;28;20460;-46
2021/10/23 01:43:43;;;;;;;12.18;4.90;;;;;;;9.48;91.09;102398.75;4991392;28;20042;-46
2021/10/23 01:46:10;;;;;;;12.77;4.38;;;;;;;9.48;91.08;102396.03;4991187;28;20043;-43
2021/10/23 01:48:38;;;;;;;12.38;4.50;;;;;;;9.45;91.21;102394.56;4991613;28;20112;-46
2021/10/23 01:51:06;;;;;;;12.45;4.95;;;;;;;9.43;91.11;102388.53;4992198;28;20042;-46
2021/10/23 01:53:34;;;;;;;17.88;5.38;;;;;;;9.39;91.20;102382.69;4991863;28;20054;-45
2021/10/23 01:56:02;;;;;;;13.85;4.70;;;;;;;9.37;91.24;102384.78;4991469;28;20038;-45
2021/10/23 01:58:30;;;;;;;10.48;5.32;;;;;;;9.36;91.54;102383.13;4978562;28;20065;-46
2021/10/23 02:00:58;;;;;;;12.13;5.57;;;;;;;9.34;91.55;102379.78;4992046;28;20470;-44
2021/10/23 02:03:26;;;;;;;10.80;5.07;;;;;;;9.34;91.25;102376.25;4989662;28;20101;-46
2021/10/23 02:05:53;;;;;;;10.50;5.05;;;;;;;9.32;91.62;102365.56;4991772;28;20137;-46
2021/10/23 02:08:21;;;;;;;12.05;4.97;;;;;;;9.30;91.14;102373.13;4991927;28;20045;-42
2021/10/23 02:10:49;;;;;;;11.75;5.25;;;;;;;9.29;91.23;102366.03;4991769;28;20050;-46
2021/10/23 02:13:16;;;;;;;12.95;5.15;;;;;;;9.29;91.41;102370.66;4992054;28;20049;-48
2021/10/23 02:15:44;;;;;;;13.68;5.38;;;;;;;9.29;91.20;102384.25;4995874;28;20085;-44
2021/10/23 02:18:11;;;;;;;12.55;5.10;;;;;;;9.28;91.48;102386.09;4995313;28;20043;-44
2021/10/23 02:20:39;;;;;;;12.57;5.07;;;;;;;9.26;91.55;102379.22;4996008;28;20034;-46
2021/10/23 02:23:06;;;;;;;11.75;5.20;;;;;;;9.25;91.79;102378.41;4995190;28;20039;-46
2021/10/23 02:25:35;;;;;;;11.80;5.03;;;;;;;9.26;91.29;102381.94;4995707;28;20393;-47
2021/10/23 02:28:03;;;;;;;11.13;5.38;;;;;;;9.25;91.50;102389.28;4996082;28;20046;-45
2021/10/23 02:30:30;;;;;;;11.38;5.50;;;;;;;9.24;91.49;102389.50;4995788;28;20043;-47
2021/10/23 02:32:58;;;;;;;13.00;5.80;;;;;;;9.24;91.76;102390.34;4995200;28;20030;-46
2021/10/23 02:35:26;;;;;;;13.07;5.97;;;;;;;9.25;91.49;102386.56;4995156;28;20054;-45
2021/10/23 02:37:53;;;;;;;14.02;6.18;;;;;;;9.26;92.15;102380.09;4995527;28;20046;-46
2021/10/23 02:40:23;;;;;;;12.88;6.28;;;;;;;9.28;91.56;102375.22;4995106;28;20050;-45
2021/10/23 02:42:51;;;;;;;12.93;6.05;;;;;;;9.30;91.88;102385.91;4982271;28;20050;-44
2021/10/23 02:45:18;;;;;;;12.18;5.70;;;;;;;9.30;91.44;102389.44;4994399;28;20074;-45
2021/10/23 02:47:46;;;;;;;9.20;5.50;;;;;;;9.31;91.57;102407.44;4994659;28;20060;-44
2021/10/23 02:50:14;;;;;;;11.32;5.97;;;;;;;9.33;91.51;102410.78;4995348;28;20524;-46
2021/10/23 02:52:41;;;;;;;13.05;5.57;;;;;;;9.34;91.84;102401.56;4995180;28;20034;-47
2021/10/23 02:55:11;;;;;;;12.15;5.90;;;;;;;9.35;91.48;102400.50;4994335;28;20046;-44
2021/10/23 02:57:38;;;;;;;12.57;6.50;;;;;;;9.36;91.07;102393.19;4995035;28;20053;-45
2021/10/23 03:00:07;;;;;;;12.13;6.47;;;;;;;9.33;90.81;102389.03;4994830;28;20085;-46
2021/10/23 03:02:37;;;;;;;11.35;5.90;;;;;;;9.30;90.91;102392.16;4994908;28;20469;-46
2021/10/23 03:05:06;;;;;;;17.08;6.28;;;;;;;9.29;90.67;102393.22;4994791;28;20076;-45
2021/10/23 03:07:34;;;;;;;11.45;6.40;;;;;;;9.27;90.56;102397.22;4994748;28;20046;-47
2021/10/23 03:10:02;;;;;;;12.57;6.22;;;;;;;9.27;91.02;102405.38;4994596;28;20464;-46
2021/10/23 03:12:29;;;;;;;11.73;5.88;;;;;;;9.26;90.81;102404.56;4994909;28;20046;-45
2021/10/23 03:14:59;;;;;;;14.10;6.35;;;;;;;9.27;90.82;102411.66;4993490;28;20073;-45
2021/10/23 03:17:27;;;;;;;10.90;6.03;;;;;;;9.26;90.82;102399.13;4994728;28;20040;-45
2021/10/23 03:19:57;;;;;;;12.95;6.30;;;;;;;9.29;90.92;102398.66;4994704;28;20497;-45
2021/10/23 03:22:25;;;;;;;13.02;6.15;;;;;;;9.29;90.29;102397.84;4994693;28;20050;-47
2021/10/23 03:24:53;;;;;;;16.13;6.40;;;;;;;9.27;90.38;102413.53;4993985;28;20042;-45
2021/10/23 03:27:22;;;;;;;13.15;6.82;;;;;;;9.24;90.40;102406.66;4994285;28;20545;-45
2021/10/23 03:29:50;;;;;;;14.00;7.35;;;;;;;9.24;90.44;102416.72;4994318;28;20513;-45
2021/10/23 03:32:18;;;;;;;11.75;6.57;;;;;;;9.21;90.40;102423.41;4994357;28;20030;-45
2021/10/23 03:34:46;;;;;;;10.07;6.47;;;;;;;9.20;90.19;102424.47;4994152;28;20509;-46
2021/10/23 03:37:14;;;;;;;13.80;7.35;;;;;;;9.21;90.26;102417.13;4993967;28;20558;-46
2021/10/23 03:39:42;;;;;;;14.07;6.70;;;;;;;9.21;90.27;102426.13;4993979;28;20043;-44
2021/10/23 03:42:09;;;;;;;13.57;7.20;;;;;;;9.20;90.29;102426.34;4993970;28;20046;-45
2021/10/23 03:44:37;;;;;;;11.98;6.93;;;;;;;9.19;90.92;102430.97;4993678;28;20489;-45
2021/10/23 03:47:04;;;;;;;14.18;7.10;;;;;;;9.19;90.78;102433.69;4993868;28;20053;-45
2021/10/23 03:49:34;;;;;;;12.27;7.10;;;;;;;9.18;90.87;102435.53;4994145;28;20040;-46
2021/10/23 03:52:02;;;;;;;13.32;7.28;;;;;;;9.20;90.67;102432.63;4994630;28;20050;-47
2021/10/23 03:54:29;;;;;;;12.23;7.30;;;;;;;9.20;91.15;102448.94;4993568;28;20038;-46
2021/10/23 03:56:57;;;;;;;12.98;6.85;;;;;;;9.21;90.79;102450.59;4993934;28;20713;-46
2021/10/23 03:59:24;;;;;;;15.95;7.95;;;;;;;9.23;91.11;102459.38;4993678;28;20116;-43
2021/10/23 04:01:52;;;;;;;12.25;7.00;;;;;;;9.22;91.07;102459.59;4994264;28;20042;-46
2021/10/23 04:04:20;;;;;;;12.85;7.80;;;;;;;9.23;90.68;102456.66;4993366;28;20070;-45
2021/10/23 04:06:48;;;;;;;11.65;7.53;;;;;;;9.21;91.06;102458.75;4993985;28;20093;-45
2021/10/23 04:09:15;;;;;;;11.55;6.80;;;;;;;9.20;91.09;102448.94;4993514;28;20050;-45
2021/10/23 04:11:43;;;;;;;13.63;8.15;;;;;;;9.23;91.56;102447.66;4993694;28;20035;-46
2021/10/23 04:14:11;;;;;;;15.50;7.65;;;;;;;9.23;91.26;102442.22;4988747;28;20047;-43
2021/10/23 04:16:40;;;;;;;14.02;7.22;;;;;;;9.23;91.23;102440.34;4991808;28;20381;-46
2021/10/23 04:19:07;;;;;;;13.55;7.47;;;;;;;9.23;91.63;102445.78;4993445;28;20077;-45
2021/10/23 04:21:35;;;;;;;10.38;6.75;;;;;;;9.24;91.06;102449.34;4993552;28;20477;-45
2021/10/23 04:24:03;;;;;;;13.15;7.97;;;;;;;9.23;90.54;102453.94;4992936;28;20113;-43
2021/10/23 04:26:31;;;;;;;12.18;7.38;;;;;;;9.20;90.28;102448.94;4993104;28;20433;-46
2021/10/23 04:28:59;;;;;;;11.35;6.97;;;;;;;9.15;90.56;102448.75;4993057;28;20494;-45
2021/10/23 04:31:26;;;;;;;12.10;7.45;;;;;;;9.14;90.56;102453.38;4993331;28;20043;-45
2021/10/23 04:33:55;;;;;;;13.98;7.72;;;;;;;9.13;90.44;102453.59;4992090;28;20125;-49
2021/10/23 04:36:22;;;;;;;15.57;8.05;;;;;;;9.14;90.37;102452.53;4991851;28;20097;-46
2021/10/23 04:38:50;;;;;;;16.30;8.70;;;;;;;9.13;90.55;102451.69;4992335;28;20417;-47
2021/10/23 04:41:18;;;;;;;12.63;8.32;;;;;;;9.14;90.43;102449.81;4989321;28;20038;-46
2021/10/23 04:43:45;;;;;;;12.93;7.70;;;;;;;9.14;90.17;102447.94;4992850;28;20050;-46
2021/10/23 04:46:13;;;;;;;14.70;8.25;;;;;;;9.13;90.14;102450.88;4992195;28;20042;-46
2021/10/23 04:48:40;;;;;;;12.98;7.93;;;;;;;9.10;89.32;102449.41;4993029;28;20069;-46
2021/10/23 04:51:08;;;;;;;15.82;8.57;;;;;;;9.06;89.29;102447.34;4993044;28;20046;-46
2021/10/23 04:53:36;;;;;;;13.50;8.32;;;;;;;9.04;89.08;102444.00;4993216;28;20047;-46
2021/10/23 04:56:03;;;;;;;16.55;9.30;;;;;;;9.01;89.33;102450.72;4992171;28;20460;-47
2021/10/23 04:58:32;;;;;;;14.80;9.60;;;;;;;8.98;89.76;102448.44;4992542;28;20092;-45
2021/10/23 05:01:00;;;;;;;11.02;8.27;;;;;;;8.94;89.36;102450.75;4992857;28;20394;-44
2021/10/23 05:03:28;;;;;;;11.15;8.35;;;;;;;8.93;89.75;102454.53;4992733;28;20058;-45
2021/10/23 05:05:55;;;;;;;13.55;8.93;;;;;;;8.93;90.51;102451.81;4992592;28;20045;-43
2021/10/23 05:08:23;;;;;;;10.75;7.90;;;;;;;8.93;90.44;102450.97;4992036;28;20516;-46
2021/10/23 05:10:51;;;;;;;11.35;8.07;;;;;;;8.92;90.21;102455.59;4992378;28;20039;-43
2021/10/23 05:13:18;;;;;;;11.23;8.10;;;;;;;8.91;90.83;102453.06;4992586;28;20073;-42
2021/10/23 05:15:46;;;;;;;11.05;7.80;;;;;;;8.91;90.39;102456.63;4992367;28;20096;-45
2021/10/23 05:18:14;;;;;;;11.05;8.00;;;;;;;8.92;90.28;102462.88;4991711;28;20052;-43
2021/10/23 05:20:42;;;;;;;10.10;7.15;;;;;;;8.91;90.31;102466.66;4992173;28;20045;-45
2021/10/23 05:23:09;;;;;;;9.15;6.88;;;;;;;8.90;89.27;102468.56;5007335;28;20517;-45
2021/10/23 05:25:37;;;;;;;9.20;6.93;;;;;;;8.84;89.48;102461.25;4991868;28;20088;-44
2021/10/23 05:28:04;;;;;;;9.25;6.40;;;;;;;8.81;89.49;102469.84;4991580;28;20038;-43
2021/10/23 05:30:32;;;;;;;9.27;6.55;;;;;;;8.76;89.40;102472.38;4991946;28;20136;-45
2021/10/23 05:33:00;;;;;;;8.23;6.35;;;;;;;8.72;89.51;102471.97;4992147;28;20046;-45
2021/10/23 05:35:27;;;;;;;9.48;6.57;;;;;;;8.69;89.28;102471.56;4992555;28;20042;-46
2021/10/23 05:37:55;;;;;;;9.27;6.88;;;;;;;8.67;89.87;102481.81;4991967;28;20241;-44
2021/10/23 05:40:23;;;;;;;7.85;5.85;;;;;;;8.67;89.69;102471.78;4991462;28;20416;-46
2021/10/23 05:42:51;;;;;;;10.65;6.53;;;;;;;8.67;89.55;102473.66;4993567;28;20516;-45
2021/10/23 05:45:18;;;;;;;9.20;6.20;;;;;;;8.66;89.23;102474.69;4991646;28;20038;-45
2021/10/23 05:47:46;;;;;;;8.35;6.18;;;;;;;8.65;89.70;102478.47;4991081;28;20042;-46
2021/10/23 05:50:13;;;;;;;10.00;6.68;;;;;;;8.64;89.14;102476.81;4991653;28;20511;-45
2021/10/23 05:52:41;;;;;;;9.20;6.22;;;;;;;8.65;89.42;102492.06;4991692;28;20516;-45
2021/10/23 05:55:09;;;;;;;8.10;6.15;;;;;;;8.65;89.20;102494.78;4991702;28;20409;-46
2021/10/23 05:57:36;;;;;;;9.00;6.28;;;;;;;8.65;89.02;102495.59;4990892;28;20125;-48
2021/10/23 06:00:07;;;;;;;10.40;6.18;;;;;;;8.66;88.97;102496.44;4991981;28;20409;-46
2021/10/23 06:02:45;;;;;;;9.30;6.20;;;;;;;8.67;89.47;102514.44;4991657;28;20053;-46
2021/10/23 06:05:12;;;;;;;9.02;6.60;;;;;;;8.66;88.81;102508.16;4992083;28;20045;-48
2021/10/23 06:07:42;;;;;;;7.60;5.80;;;;;;;8.68;88.97;102516.09;4991587;28;20038;-46
2021/10/23 06:10:11;;;;;;;7.70;5.78;;;;;;;8.67;88.99;102515.25;4991599;28;20044;-46
2021/10/23 06:12:41;;;;;;;8.77;6.20;;;;;;;8.65;89.01;102521.94;4986011;28;20579;-47
2021/10/23 06:15:09;;;;;;;8.52;6.10;;;;;;;8.64;89.03;102526.56;4991144;28;20050;-44
2021/10/23 06:17:37;;;;;;;8.82;6.78;;;;;;;8.62;88.59;102523.22;4991937;28;20061;-43
2021/10/23 06:20:06;;;;;;;8.82;6.28;;;;;;;8.61;89.11;102537.84;4991557;28;20035;-47
2021/10/23 06:22:34;;;;;;;8.88;6.50;;;;;;;8.59;88.52;102534.50;4991288;28;20047;-47
2021/10/23 06:25:02;;;;;;;7.53;5.40;;;;;;;8.59;88.62;102539.13;4990789;28;20101;-44
2021/10/23 06:27:30;;;;;;;10.02;6.20;;;;;;;8.59;88.99;102539.13;4991483;28;20085;-45
2021/10/23 06:29:57;;;;;;;7.93;5.65;;;;;;;8.55;88.87;102540.59;4992111;28;20500;-43
2021/10/23 06:32:25;;;;;;;8.15;5.88;;;;;;;8.56;89.02;102539.53;4991689;28;20046;-45
2021/10/23 06:34:53;;;;;;;7.50;5.93;;;;;;;8.55;88.82;102543.31;4992070;28;20046;-47
2021/10/23 06:37:25;;;;;;;7.60;5.60;;;;;;;8.53;88.92;102549.75;4991487;28;20371;-47
2021/10/23 06:39:53;;;;;;;9.27;6.53;;;;;;;8.55;89.21;102555.00;4991566;28;20046;-48
2021/10/23 06:42:21;;;;;;;7.82;6.07;;;;;;;8.53;89.29;102563.34;4991215;28;20042;-46
2021/10/23 06:44:48;;;;;;;8.73;6.28;;;;;;;8.51;88.74;102565.47;4991677;28;20062;-47
2021/10/23 06:47:16;;;;;;;8.63;6.30;;;;;;;8.52;89.12;102567.13;4991321;28;20493;-47
2021/10/23 06:49:43;;;;;;;9.02;6.85;;;;;;;8.53;89.57;102568.78;4991776;28;20038;-45
2021/10/23 06:52:11;;;;;;;9.55;6.50;;;;;;;8.53;89.82;102574.22;4991316;28;20039;-46
2021/10/23 06:54:39;;;;;;;8.93;6.50;;;;;;;8.55;89.79;102571.28;4991271;28;20065;-46
2021/10/23 06:57:06;;;;;;;10.10;6.97;;;;;;;8.56;89.72;102572.13;4991641;28;20066;-45
2021/10/23 06:59:54;;;;;;;11.40;8.07;;;;;;;8.58;89.77;102576.31;4992724;28;20417;-43
2021/10/23 07:02:22;;;;;;;11.60;8.20;;;;;;;8.60;90.32;102579.66;4994436;28;20046;-45
2021/10/23 07:04:50;;;;;;;12.15;8.30;;;;;;;8.59;90.54;102577.16;4994392;28;20053;-46
2021/10/23 07:07:17;;;;;;;13.57;8.40;;;;;;;8.57;90.30;102579.25;4994906;28;20046;-46
2021/10/23 07:09:45;;;;;;;10.70;8.02;;;;;;;8.57;90.34;102587.41;4993280;28;20034;-46
2021/10/23 07:12:12;;;;;;;10.00;7.07;;;;;;;8.59;90.99;102596.19;4994830;28;20457;-43
2021/10/23 07:14:40;;;;;;;12.10;8.45;;;;;;;8.62;90.61;102604.72;4994091;28;20038;-45
2021/10/23 07:17:07;;;;;;;11.15;7.88;;;;;;;8.61;90.33;102605.78;4994847;28;20516;-47
2021/10/23 07:19:35;;;;;;;11.48;8.43;;;;;;;8.63;91.26;102602.84;4994681;28;20056;-48
2021/10/23 07:22:03;;;;;;;11.40;8.07;;;;;;;8.67;90.96;102612.25;4993891;28;20394;-47
2021/10/23 07:24:30;;;;;;;12.85;8.70;;;;;;;8.68;90.72;102613.91;4994838;28;20045;-45
2021/10/23 07:26:58;;;;;;;12.85;9.05;;;;;;;8.66;91.21;102610.56;4994133;28;20433;-46
2021/10/23 07:29:26;;;;;;;14.80;9.48;;;;;;;8.68;91.00;102619.34;4990234;28;20104;-47
2021/10/23 07:31:53;;;;;;;22.45;10.60;;;;;;;8.67;91.35;102615.78;4994227;28;20144;-46
2021/10/23 07:34:21;;;;;;;20.98;11.30;;;;;;;8.69;90.70;102621.03;4980754;28;20042;-47
2021/10/23 07:36:48;;;;;;;22.60;12.00;;;;;;;8.69;91.41;102623.75;4993666;28;20058;-43
2021/10/23 07:39:16;;;;;;;20.40;12.18;;;;;;;8.70;91.13;102628.94;4994063;28;20128;-46
2021/10/23 07:41:44;;;;;;;17.75;10.85;;;;;;;8.72;91.68;102632.28;4994109;28;20045;-47
2021/10/23 07:44:12;;;;;;;15.02;9.27;;;;;;;8.74;91.71;102640.25;4994009;28;20046;-46
2021/10/23 07:46:40;;;;;;;13.55;9.50;;;;;;;8.76;91.36;102646.31;4993883;28;20042;-44
2021/10/23 07:49:08;;;;;;;14.77;9.45;;;;;;;8.77;91.87;102656.13;4993823;28;20057;-47
2021/10/23 07:51:36;;;;;;;13.00;9.50;;;;;;;8.78;91.63;102652.38;4993609;28;20051;-49
2021/10/23 07:54:09;;;;;;;12.48;9.38;;;;;;;8.79;92.17;102654.03;4994084;28;20409;-47
2021/10/23 07:56:39;;;;;;;13.77;9.88;;;;;;;8.81;92.10;102657.38;4993766;28;20046;-46
2021/10/23 07:59:07;;;;;;;14.00;9.63;;;;;;;8.82;91.79;102659.03;4993034;28;20053;-47
2021/10/23 08:01:35;;;;;;;13.43;9.55;;;;;;;8.82;92.08;102664.47;4980613;28;20046;-49
2021/10/23 08:04:03;;;;;;;21.67;16.25;;;;;;;8.85;92.22;102663.22;4993886;28;20049;-47
2021/10/23 08:06:30;;;;;;;16.17;11.25;;;;;;;8.86;92.78;102665.75;4992963;28;20046;-46
2021/10/23 08:08:58;;;;;;;14.23;10.27;;;;;;;8.89;92.78;102675.34;4993985;28;20047;-45
2021/10/23 08:11:25;;;;;;;29.50;10.65;;;;;;;8.95;93.59;102672.63;4992807;28;20449;-45
2021/10/23 08:13:53;;;;;;;21.90;11.77;;;;;;;9.00;93.39;102671.16;4993592;28;20042;-45
2021/10/23 08:16:21;;;;;;;16.40;12.13;;;;;;;9.01;93.20;102667.38;4993268;28;20106;-46
2021/10/23 08:18:48;;;;;;;16.50;11.68;;;;;;;9.00;93.46;102673.88;4993313;28;20050;-50
2021/10/23 08:21:18;;;;;;;18.55;12.38;;;;;;;8.99;93.14;102670.31;4993336;28;20571;-44
2021/10/23 08:23:46;;;;;;;22.83;13.25;;;;;;;8.98;93.47;102663.22;4993637;28;20034;-47
2021/10/23 08:26:14;;;;;;;18.63;13.20;;;;;;;8.98;93.06;102674.09;4993257;28;20113;-43
2021/10/23 08:28:41;;;;;;;19.23;12.27;;;;;;;8.97;93.94;102683.28;4993042;28;20056;-46
2021/10/23 08:31:10;;;;;;;20.02;11.98;;;;;;;8.98;93.74;102684.13;4993233;28;20092;-46
2021/10/23 08:33:38;;;;;;;19.92;13.52;;;;;;;8.96;94.23;102679.72;4993170;28;20043;-47
2021/10/23 08:36:06;;;;;;;19.48;12.15;;;;;;;8.98;94.24;102682.25;4993057;28;20035;-48
2021/10/23 08:38:33;;;;;;;19.88;12.88;;;;;;;8.95;93.88;102686.22;4992542;28;20417;-46
2021/10/23 08:41:01;;;;;;;19.23;13.13;;;;;;;8.94;94.24;102692.69;4993379;28;20511;-46
2021/10/23 08:43:30;;;;;;;17.83;12.18;;;;;;;8.96;94.38;102692.50;5008609;28;20050;-48
2021/10/23 08:45:59;;;;;;;19.90;12.52;;;;;;;8.96;94.46;102695.22;5007452;28;20049;-46
2021/10/23 08:48:28;;;;;;;16.75;11.80;;;;;;;8.99;94.81;102696.66;5007625;28;20105;-46
2021/10/23 08:50:55;;;;;;;17.10;11.88;;;;;;;9.02;94.82;102693.53;4992000;28;20042;-47
2021/10/23 08:53:41;;;;;;;17.58;11.70;;;;;;;9.06;94.85;102697.50;5006032;28;20489;-45
2021/10/23 08:56:10;;;;;;;20.13;12.77;;;;;;;9.09;95.41;102699.78;4991162;28;20100;-47
2021/10/23 08:58:38;;;;;;;19.00;12.52;;;;;;;9.12;94.66;102707.53;4991833;28;20175;-47
2021/10/23 09:01:09;;;;;;;19.38;13.27;;;;;;;9.14;94.84;102710.88;4992174;28;20057;-46
2021/10/23 09:03:40;;;;;;;15.63;10.50;;;;;;;9.15;94.61;102705.22;4992748;28;20042;-45
2021/10/23 09:06:15;;;;;;;16.77;12.23;;;;;;;9.18;95.03;102703.97;4992507;28;20057;-44
2021/10/23 09:08:59;;;;;;;21.70;14.20;;;;;;;9.20;94.57;102709.19;4992661;28;20070;-46
2021/10/23 09:11:47;;;;;;;22.15;15.48;;;;;;;9.21;94.78;102716.28;4991310;28;20045;-47
2021/10/23 09:14:29;;;;;;;22.70;16.13;;;;;;;9.22;95.02;102710.66;4992429;28;20046;-45
2021/10/23 09:17:06;;;;;;;25.02;15.80;;;;;;;9.22;95.39;102713.38;4979041;28;20057;-46
2021/10/23 09:19:41;;;;;;;23.42;15.43;;;;;;;9.24;95.64;102715.91;4992319;28;20077;-46
2021/10/23 09:22:22;;;;;;;19.73;14.30;;;;;;;9.26;95.51;102716.50;4991948;28;20382;-46
2021/10/23 09:25:09;;;;;;;19.23;15.02;;;;;;;9.26;95.70;102720.06;4992025;28;20038;-45
2021/10/23 09:27:44;;;;;;;23.15;15.60;;;;;;;9.29;95.63;102716.91;4979533;28;20129;-45
2021/10/23 09:30:12;;;;;;;24.57;15.73;;;;;;;9.32;96.11;102708.31;4992224;28;20034;-45
2021/10/23 09:32:40;;;;;;;23.05;16.45;;;;;;;9.34;96.29;102711.66;4978668;28;20038;-46
2021/10/23 09:35:15;;;;;;;23.85;16.90;;;;;;;9.37;96.14;102710.41;4992167;28;20046;-46
2021/10/23 09:37:44;;;;;;;24.85;17.02;;;;;;;9.38;96.11;102707.47;4991065;28;20050;-47
2021/10/23 09:40:16;;;;;;;23.65;16.20;;;;;;;9.39;96.23;102713.75;4991999;28;20122;-47
2021/10/23 09:42:44;;;;;;;22.45;16.17;;;;;;;9.43;96.28;102719.59;4991747;28;20042;-44
2021/10/23 09:45:11;;;;;;;25.55;17.13;;;;;;;9.45;96.64;102718.31;4990357;28;20038;-46
2021/10/23 09:47:42;;;;;;;25.10;17.40;;;;;;;9.47;97.16;102721.66;4990576;28;20038;-43
2021/10/23 09:50:19;;;;;;;22.33;15.55;;;;;;;9.51;97.12;102711.22;4992063;28;20042;-46
2021/10/23 09:53:06;;;;;;;22.40;16.88;;;;;;;9.54;96.84;102705.31;4991990;28;20042;-47
2021/10/23 09:55:38;;;;;;;22.48;16.23;;;;;;;9.56;97.00;102714.13;4991607;28;20050;-47
2021/10/23 09:58:13;;;;;;;23.48;16.23;;;;;;;9.57;97.29;102713.91;4991936;28;20030;-44
2021/10/23 10:00:47;;;;;;;22.98;16.65;;;;;;;9.63;97.67;102719.53;4991144;28;20397;-47
2021/10/23 10:03:16;;;;;;;23.23;16.90;;;;;;;9.66;97.63;102719.94;4978336;28;20100;-46
2021/10/23 10:05:51;;;;;;;24.08;17.08;;;;;;;9.69;97.68;102727.69;4991716;28;20042;-48
2021/10/23 10:08:19;;;;;;;23.27;17.30;;;;;;;9.70;97.76;102726.63;4991958;28;20049;-47
2021/10/23 10:10:48;;;;;;;20.73;15.85;;;;;;;9.74;98.01;102722.44;4991883;28;20042;-45
2021/10/23 10:13:24;;;;;;;22.02;15.55;;;;;;;9.77;97.84;102730.16;4991157;28;20050;-45
2021/10/23 10:15:54;;;;;;;24.80;18.05;;;;;;;9.79;98.42;102721.78;4991375;28;20126;-46
2021/10/23 10:18:23;;;;;;;32.20;19.05;;;;;;;9.81;99.33;102733.28;4991647;28;20125;-45
2021/10/23 10:20:56;;;;;;;28.05;18.77;;;;;;;9.81;99.69;102734.13;4992034;28;20042;-47
2021/10/23 10:23:35;;;;;;;29.58;20.25;;;;;;;9.81;99.97;102734.13;4991689;28;20045;-44
2021/10/23 10:26:23;;;;;;;24.48;17.25;;;;;;;9.84;99.53;102735.59;4987291;28;20031;-48
2021/10/23 10:29:13;;;;;;;28.92;17.23;;;;;;;9.90;99.74;102731.16;4991008;28;20046;-46
2021/10/23 10:43:10;;;;;;;21.55;16.27;;;;;;;9.98;100.00;102737.19;4994894;28;20070;-43
2021/10/23 10:46:01;;;;;;;22.27;16.58;;;;;;;10.01;100.00;102733.22;4994439;28;20050;-46
2021/10/23 10:48:29;;;;;;;24.80;16.92;;;;;;;10.04;100.00;102727.31;4995493;28;20046;-46
2021/10/23 10:51:04;;;;;;;25.38;16.77;;;;;;;10.09;100.00;102729.38;4994814;28;20053;-47
2021/10/23 10:53:38;;;;;;;23.30;16.90;;;;;;;10.11;100.00;102733.56;4994959;28;20034;-45
2021/10/23 10:56:13;;;;;;;20.50;15.48;;;;;;;10.15;100.00;102731.22;4995147;28;20039;-46
2021/10/23 10:58:45;;;;;;;19.25;14.07;;;;;;;10.17;99.89;102735.44;4994805;28;20038;-45
2021/10/23 11:01:21;;;;;;;21.17;15.80;;;;;;;10.20;100.00;102732.25;4994835;28;20073;-46
2021/10/23 11:03:52;;;;;;;23.63;15.50;;;;;;;10.23;99.89;102720.91;4986234;28;20047;-47
2021/10/23 11:09:09;;;;;;;17.20;11.15;;;;;;;10.30;99.34;102726.38;4995326;28;20073;-45
2021/10/23 11:11:51;;;;;;;26.85;14.98;;;;;;;10.30;99.25;102725.53;4994002;28;20046;-48
2021/10/23 11:16:55;;;;;;;18.17;14.32;;;;;;;10.35;99.10;102718.38;4994759;28;20156;-46
2021/10/23 11:19:28;;;;;;;20.00;14.45;;;;;;;10.37;98.98;102716.25;4994992;28;20038;-46
2021/10/23 11:22:32;;;;;;;17.20;12.13;;;;;;;10.39;98.66;102714.16;4993979;28;20505;-47
2021/10/23 11:25:05;;;;;;;17.27;11.05;;;;;;;10.46;99.01;102716.81;4972608;28;20046;-46
2021/10/23 11:27:35;;;;;;;25.58;14.23;;;;;;;10.47;98.54;102715.78;4972011;28;20049;-46
2021/10/23 11:30:31;;;;;;;20.70;14.65;;;;;;;10.49;98.88;102707.38;4972605;28;20564;-45
2021/10/23 11:33:08;;;;;;;24.08;15.13;;;;;;;10.51;98.00;102706.09;4972447;28;20513;-47
2021/10/23 11:35:47;;;;;;;19.58;13.13;;;;;;;10.52;97.91;102707.75;4972631;28;20109;-45
2021/10/23 11:38:24;;;;;;;21.55;15.13;;;;;;;10.54;97.69;102702.09;4972449;28;20553;-45
2021/10/23 11:40:54;;;;;;;20.15;13.25;;;;;;;10.54;97.44;102700.19;4971884;28;20130;-42
2021/10/23 11:43:22;;;;;;;19.67;13.98;;;;;;;10.54;97.01;102700.19;4971847;28;20122;-47
2021/10/23 11:45:50;;;;;;;19.73;14.35;;;;;;;10.57;96.81;102693.47;4970974;28;20058;-46
2021/10/23 11:48:18;;;;;;;22.13;14.00;;;;;;;10.59;97.30;102694.91;4972398;28;20403;-46
2021/10/23 11:50:50;;;;;;;24.17;13.18;;;;;;;10.59;96.65;102692.19;4972125;28;20583;-45